createdAt,value
2019-05-18T00:01:32.228Z,93.17
2019-05-18T00:04:38.744Z,91.44
2019-05-18T00:07:47.248Z,92.59
2019-05-18T00:10:53.709Z,92.46
2019-05-18T00:14:00.365Z,92.20
2019-05-18T00:17:09.525Z,91.71
2019-05-18T00:20:16.509Z,94.06
2019-05-18T00:23:23.145Z,92.40
2019-05-18T00:26:29.608Z,91.67
2019-05-18T00:29:36.032Z,94.68
2019-05-18T00:32:45.386Z,94.15
2019-05-18T00:35:52.855Z,93.24
2019-05-18T00:39:00.389Z,93.49
2019-05-18T00:42:07.080Z,90.85
2019-05-18T00:45:14.231Z,91.54
2019-05-18T00:48:20.881Z,94.69
2019-05-18T00:51:27.430Z,91.57
2019-05-18T00:54:34.045Z,95.99
2019-05-18T00:57:40.568Z,95.11
2019-05-18T01:00:49.464Z,96.00
2019-05-18T01:03:55.959Z,95.55
2019-05-18T01:07:02.410Z,94.99
2019-05-18T01:10:09.646Z,92.20
2019-05-18T01:13:16.315Z,86.81
2019-05-18T01:16:22.798Z,85.61
2019-05-18T01:19:29.402Z,89.34
2019-05-18T01:22:35.879Z,89.58
2019-05-18T01:25:42.327Z,89.12
2019-05-18T01:28:49.244Z,93.38
2019-05-18T01:31:55.627Z,95.70
2019-05-18T01:35:02.139Z,94.47
2019-05-18T01:38:08.764Z,93.47
2019-05-18T01:41:15.511Z,93.00
2019-05-18T01:44:22.116Z,89.85
2019-05-18T01:47:30.112Z,92.56
2019-05-18T01:50:36.511Z,92.22
2019-05-18T01:53:45.754Z,92.12
2019-05-18T01:56:51.415Z,94.50
2019-05-18T01:59:57.897Z,96.25
2019-05-18T02:03:04.717Z,95.32
2019-05-18T02:06:11.177Z,95.61
2019-05-18T02:09:17.617Z,96.53
2019-05-18T02:12:24.287Z,91.48
2019-05-18T02:15:30.756Z,93.66
2019-05-18T02:18:37.334Z,93.63
2019-05-18T02:21:44.293Z,98.16
2019-05-18T02:24:50.783Z,97.64
2019-05-18T02:27:57.276Z,97.78
2019-05-18T02:31:03.754Z,97.27
2019-05-18T02:34:10.267Z,95.13
2019-05-18T02:37:16.690Z,95.35
2019-05-18T02:40:24.092Z,93.81
2019-05-18T02:43:31.666Z,92.36
2019-05-18T02:46:38.298Z,93.42
2019-05-18T02:49:45.174Z,94.11
2019-05-18T02:52:51.884Z,96.73
2019-05-18T02:55:58.357Z,99.07
2019-05-18T02:59:04.910Z,98.03
2019-05-18T03:02:11.455Z,97.23
2019-05-18T03:05:18.119Z,94.99
2019-05-18T03:08:24.725Z,95.37
2019-05-18T03:11:31.182Z,96.06
2019-05-18T03:14:37.708Z,96.93
2019-05-18T03:17:45.230Z,97.41
2019-05-18T03:20:51.843Z,95.00
2019-05-18T03:23:58.299Z,95.16
2019-05-18T03:27:04.873Z,94.66
2019-05-18T03:30:12.090Z,94.27
2019-05-18T03:33:18.678Z,95.62
2019-05-18T03:36:25.141Z,98.10
2019-05-18T03:39:32.712Z,96.36
2019-05-18T03:42:39.053Z,96.61
2019-05-18T03:45:47.368Z,96.40
2019-05-18T03:48:53.740Z,95.92
2019-05-18T03:52:00.301Z,100.00
2019-05-18T03:55:07.018Z,100.00
2019-05-18T03:58:13.572Z,100.00
2019-05-18T04:01:20.041Z,99.58
2019-05-18T04:04:26.701Z,100.00
2019-05-18T04:07:33.076Z,100.00
2019-05-18T04:10:39.488Z,100.00
2019-05-18T04:13:47.904Z,98.80
2019-05-18T04:16:57.899Z,93.57
2019-05-18T04:20:04.589Z,97.69
2019-05-18T04:23:11.008Z,97.89
2019-05-18T04:26:17.446Z,98.30
2019-05-18T04:29:23.872Z,97.83
2019-05-18T04:32:30.367Z,98.66
2019-05-18T04:35:38.923Z,99.13
2019-05-18T04:38:45.829Z,98.70
2019-05-18T04:41:52.291Z,99.33
2019-05-18T04:44:58.746Z,98.55
2019-05-18T04:48:05.385Z,98.77
2019-05-18T04:51:12.059Z,98.32
2019-05-18T04:54:18.574Z,98.52
2019-05-18T04:57:25.099Z,97.96
2019-05-18T05:00:31.573Z,96.45
2019-05-18T05:03:38.016Z,96.43
2019-05-18T05:06:44.908Z,96.47
2019-05-18T05:09:51.532Z,96.25
2019-05-18T05:12:57.962Z,95.70
2019-05-18T05:16:04.474Z,95.18
2019-05-18T05:19:11.121Z,94.55
2019-05-18T05:22:17.590Z,94.91
2019-05-18T05:25:24.143Z,94.12
2019-05-18T05:28:30.717Z,93.64
2019-05-18T05:31:37.385Z,93.32
2019-05-18T05:34:46.504Z,93.35
2019-05-18T05:37:53.017Z,92.63
2019-05-18T05:40:59.479Z,92.06
2019-05-18T05:44:06.026Z,91.04
2019-05-18T05:47:12.523Z,91.65
2019-05-18T05:50:34.803Z,90.70
2019-05-18T05:53:28.458Z,89.64
2019-05-18T05:56:34.899Z,89.26
2019-05-18T05:59:41.603Z,89.00
2019-05-18T06:02:48.069Z,88.17
2019-05-18T06:05:54.537Z,87.93
2019-05-18T06:09:02.212Z,86.91
2019-05-18T06:12:09.011Z,86.37
2019-05-18T06:15:15.989Z,85.19
2019-05-18T06:18:22.529Z,84.87
2019-05-18T06:21:29.026Z,84.88
2019-05-18T06:24:36.420Z,83.39
2019-05-18T06:27:44.371Z,84.54
2019-05-18T06:30:50.685Z,83.35
2019-05-18T06:33:57.373Z,82.35
2019-05-18T06:37:04.004Z,81.88
2019-05-18T06:40:11.037Z,81.84
2019-05-18T06:43:17.670Z,80.53
2019-05-18T06:46:24.340Z,79.30
2019-05-18T06:49:30.782Z,79.75
2019-05-18T06:52:38.027Z,78.73
2019-05-18T06:55:45.529Z,78.43
2019-05-18T06:58:53.591Z,79.00
2019-05-18T07:02:06.945Z,77.54
2019-05-18T07:05:13.582Z,76.28
2019-05-18T07:08:20.088Z,76.24
2019-05-18T07:11:30.259Z,76.23
2019-05-18T07:14:36.792Z,75.54
2019-05-18T07:17:45.197Z,74.22
2019-05-18T07:20:52.415Z,72.11
2019-05-18T07:23:58.924Z,73.87
2019-05-18T07:27:05.456Z,72.93
2019-05-18T07:30:12.697Z,73.03
2019-05-18T07:33:19.391Z,72.73
2019-05-18T07:36:25.917Z,71.97
2019-05-18T07:39:35.504Z,72.35
2019-05-18T07:42:40.658Z,69.92
2019-05-18T07:45:49.866Z,71.74
2019-05-18T07:48:59.625Z,70.97
2019-05-18T07:52:06.206Z,70.87
2019-05-18T07:55:14.212Z,69.86
2019-05-18T07:58:20.721Z,68.92
2019-05-18T08:01:27.260Z,66.85
2019-05-18T08:04:33.690Z,67.22
2019-05-18T08:07:40.234Z,66.58
2019-05-18T08:10:49.014Z,64.43
2019-05-18T08:13:55.967Z,64.51
2019-05-18T08:17:02.525Z,66.59
2019-05-18T08:20:12.696Z,66.06
2019-05-18T08:23:19.194Z,65.02
2019-05-18T08:26:25.789Z,66.23
2019-05-18T08:29:32.347Z,63.33
2019-05-18T08:32:38.927Z,65.39
2019-05-18T08:35:45.691Z,63.59
2019-05-18T08:38:52.079Z,64.56
2019-05-18T08:42:00.831Z,64.27
2019-05-18T08:45:08.422Z,64.44
2019-05-18T08:48:15.073Z,62.85
2019-05-18T08:51:21.618Z,63.22
2019-05-18T08:54:28.143Z,63.94
2019-05-18T08:57:34.879Z,62.52
2019-05-18T09:00:41.372Z,62.41
2019-05-18T09:03:47.853Z,60.35
2019-05-18T09:06:54.434Z,59.06
2019-05-18T09:10:02.042Z,60.01
2019-05-18T09:13:09.684Z,60.06
2019-05-18T09:16:17.128Z,59.54
2019-05-18T09:19:23.564Z,60.01
2019-05-18T09:22:30.162Z,59.89
2019-05-18T09:25:36.813Z,60.22
2019-05-18T09:28:45.443Z,59.73
2019-05-18T09:31:54.439Z,60.33
2019-05-18T09:35:01.116Z,59.14
2019-05-18T09:38:10.762Z,59.97
2019-05-18T09:41:17.204Z,60.63
2019-05-18T09:44:23.753Z,59.10
2019-05-18T09:47:30.137Z,58.67
2019-05-18T09:50:36.566Z,57.62
2019-05-18T09:53:51.299Z,58.19
2019-05-18T09:56:51.457Z,59.17
2019-05-18T09:59:58.384Z,57.06
2019-05-18T10:03:04.888Z,58.64
2019-05-18T10:06:11.355Z,61.24
2019-05-18T10:09:18.018Z,57.52
2019-05-18T10:12:25.778Z,57.77
2019-05-18T10:15:32.140Z,56.90
2019-05-18T10:18:38.883Z,58.29
2019-05-18T10:21:47.826Z,58.09
2019-05-18T10:24:54.288Z,57.03
2019-05-18T10:28:00.744Z,55.47
2019-05-18T10:31:07.537Z,55.93
2019-05-18T10:34:13.992Z,54.67
2019-05-18T10:37:20.472Z,57.35
2019-05-18T10:40:26.980Z,54.79
2019-05-18T10:43:35.367Z,53.31
2019-05-18T10:46:41.924Z,53.10
2019-05-18T10:49:50.096Z,54.67
2019-05-18T10:52:56.772Z,53.61
2019-05-18T10:56:03.377Z,53.52
2019-05-18T10:59:09.842Z,53.34
2019-05-18T11:02:16.541Z,53.34
2019-05-18T11:05:23.669Z,54.52
2019-05-18T11:08:32.473Z,53.68
2019-05-18T11:11:47.494Z,53.01
2019-05-18T11:14:49.314Z,52.41
2019-05-18T11:17:55.835Z,52.75
2019-05-18T11:21:03.673Z,53.67
2019-05-18T11:24:10.273Z,56.74
2019-05-18T11:27:16.791Z,53.62
2019-05-18T11:30:23.627Z,54.52
2019-05-18T11:33:30.194Z,55.05
2019-05-18T11:36:36.815Z,54.39
2019-05-18T11:39:49.404Z,54.93
2019-05-18T11:42:57.540Z,57.05
2019-05-18T11:46:04.096Z,56.89
2019-05-18T11:49:10.626Z,55.86
2019-05-18T11:52:19.541Z,53.55
2019-05-18T11:55:26.668Z,55.07
2019-05-18T11:58:33.226Z,54.39
2019-05-18T12:01:39.675Z,52.71
2019-05-18T12:04:48.837Z,52.53
2019-05-18T12:07:55.398Z,53.04
2019-05-18T12:11:01.914Z,52.63
2019-05-18T12:14:08.454Z,51.65
2019-05-18T12:17:15.082Z,50.59
2019-05-18T12:20:22.961Z,52.05
2019-05-18T12:23:29.496Z,50.75
2019-05-18T12:26:35.982Z,54.82
2019-05-18T12:29:42.487Z,52.45
2019-05-18T12:32:49.200Z,50.86
2019-05-18T12:35:55.646Z,50.27
2019-05-18T12:39:02.107Z,52.40
2019-05-18T12:42:09.903Z,52.13
2019-05-18T12:45:18.097Z,50.87
2019-05-18T12:48:24.655Z,47.93
2019-05-18T12:51:31.283Z,51.26
2019-05-18T12:54:46.041Z,50.69
2019-05-18T12:57:49.382Z,49.92
2019-05-18T13:00:55.830Z,49.70
2019-05-18T13:04:02.269Z,48.25
2019-05-18T13:07:09.752Z,51.83
2019-05-18T13:10:18.254Z,48.93
2019-05-18T13:13:24.881Z,49.54
2019-05-18T13:16:31.381Z,51.66
2019-05-18T13:19:39.698Z,48.95
2019-05-18T13:22:46.568Z,49.38
2019-05-18T13:25:53.147Z,52.33
2019-05-18T13:29:02.600Z,52.40
2019-05-18T13:32:09.059Z,50.28
2019-05-18T13:35:16.466Z,52.71
2019-05-18T13:38:22.918Z,49.47
2019-05-18T13:41:29.410Z,50.39
2019-05-18T13:44:38.193Z,47.18
2019-05-18T13:47:46.535Z,47.81
2019-05-18T13:50:54.170Z,47.18
2019-05-18T13:54:00.649Z,49.45
2019-05-18T13:57:07.268Z,49.42
2019-05-18T14:00:14.606Z,48.31
2019-05-18T14:03:21.188Z,49.17
2019-05-18T14:06:27.618Z,48.75
2019-05-18T14:09:39.332Z,47.79
2019-05-18T14:12:50.050Z,48.67
2019-05-18T14:15:56.565Z,48.83
2019-05-18T14:19:03.127Z,47.31
2019-05-18T14:22:09.606Z,48.27
2019-05-18T14:25:19.801Z,46.96
2019-05-18T14:28:24.978Z,46.02
2019-05-18T14:31:31.518Z,46.66
2019-05-18T14:34:38.035Z,48.71
2019-05-18T14:37:45.852Z,48.94
2019-05-18T14:40:52.323Z,48.57
2019-05-18T14:43:58.779Z,50.23
2019-05-18T14:47:05.711Z,49.19
2019-05-18T14:50:12.627Z,48.91
2019-05-18T14:53:19.059Z,49.11
2019-05-18T14:56:25.508Z,50.22
2019-05-18T14:59:32.135Z,52.04
2019-05-18T15:02:40.220Z,50.82
2019-05-18T15:05:49.031Z,51.43
2019-05-18T15:08:55.645Z,53.28
2019-05-18T15:12:02.497Z,52.56
2019-05-18T15:15:10.692Z,51.14
2019-05-18T15:18:17.313Z,50.92
2019-05-18T15:21:25.173Z,50.44
2019-05-18T15:24:32.781Z,53.49
2019-05-18T15:27:39.312Z,51.55
2019-05-18T15:30:47.985Z,50.19
2019-05-18T15:33:54.579Z,52.83
2019-05-18T15:37:01.403Z,53.59
2019-05-18T15:40:09.103Z,52.15
2019-05-18T15:43:15.937Z,52.90
2019-05-18T15:46:22.424Z,53.87
2019-05-18T15:49:28.966Z,53.58
2019-05-18T15:52:38.836Z,52.14
2019-05-18T15:55:45.550Z,52.42
2019-05-18T15:58:52.261Z,52.37
2019-05-18T16:01:58.883Z,53.05
2019-05-18T16:05:06.174Z,51.74
2019-05-18T16:08:12.741Z,52.22
2019-05-18T16:11:19.158Z,49.89
2019-05-18T16:14:26.004Z,51.10
2019-05-18T16:17:39.430Z,50.13
2019-05-18T16:20:41.122Z,49.55
2019-05-18T16:23:47.745Z,49.30
2019-05-18T16:26:54.288Z,50.41
2019-05-18T16:30:00.842Z,49.93
2019-05-18T16:33:07.502Z,49.54
2019-05-18T16:36:14.470Z,49.51
2019-05-18T16:39:21.064Z,48.49
2019-05-18T16:42:27.823Z,50.35
2019-05-18T16:45:34.363Z,48.01
2019-05-18T16:48:45.084Z,48.75
2019-05-18T16:51:54.279Z,49.61
2019-05-18T16:55:00.971Z,50.76
2019-05-18T16:58:07.646Z,50.98
2019-05-18T17:01:14.196Z,49.73
2019-05-18T17:04:20.806Z,48.80
2019-05-18T17:07:27.612Z,48.67
2019-05-18T17:10:34.227Z,48.85
2019-05-18T17:13:40.702Z,50.01
2019-05-18T17:16:48.013Z,50.54
2019-05-18T17:19:57.252Z,48.45
2019-05-18T17:23:03.768Z,48.71
2019-05-18T17:26:10.457Z,49.28
2019-05-18T17:29:17.485Z,50.87
2019-05-18T17:32:24.039Z,51.72
2019-05-18T17:35:31.826Z,52.00
2019-05-18T17:38:38.312Z,53.41
2019-05-18T17:41:52.498Z,53.42
2019-05-18T17:44:59.915Z,52.35
2019-05-18T17:48:06.693Z,53.13
2019-05-18T17:51:13.539Z,53.98
2019-05-18T17:54:20.126Z,53.88
2019-05-18T17:57:26.682Z,54.43
2019-05-18T18:00:33.414Z,55.01
2019-05-18T18:03:39.995Z,54.79
2019-05-18T18:06:48.542Z,55.08
2019-05-18T18:09:55.056Z,56.12
2019-05-18T18:13:01.732Z,56.70
2019-05-18T18:16:08.872Z,56.04
2019-05-18T18:19:15.521Z,58.33
2019-05-18T18:22:23.894Z,60.70
2019-05-18T18:25:30.668Z,62.27
2019-05-18T18:28:37.172Z,64.24
2019-05-18T18:31:44.923Z,65.49
2019-05-18T18:34:53.776Z,68.43
2019-05-18T18:38:00.619Z,67.98
2019-05-18T18:41:07.136Z,69.39
2019-05-18T18:44:13.783Z,71.70
2019-05-18T18:47:20.296Z,73.34
2019-05-18T18:50:26.874Z,73.84
2019-05-18T18:53:33.501Z,72.31
2019-05-18T18:56:40.096Z,69.50
2019-05-18T18:59:48.826Z,67.25
2019-05-18T19:02:56.491Z,67.05
2019-05-18T19:06:03.132Z,66.33
2019-05-18T19:09:09.794Z,66.74
2019-05-18T19:12:16.204Z,66.69
2019-05-18T19:15:22.979Z,68.00
2019-05-18T19:18:29.460Z,68.93
2019-05-18T19:21:36.623Z,71.42
2019-05-18T19:24:45.497Z,71.78
2019-05-18T19:27:55.333Z,72.77
2019-05-18T19:31:00.353Z,73.35
2019-05-18T19:34:06.820Z,74.14
2019-05-18T19:37:13.293Z,74.33
2019-05-18T19:40:22.390Z,73.22
2019-05-18T19:43:28.833Z,73.27
2019-05-18T19:46:35.970Z,73.35
2019-05-18T19:49:43.724Z,73.51
2019-05-18T19:52:50.248Z,74.45
2019-05-18T19:55:56.747Z,76.20
2019-05-18T19:59:03.173Z,78.52
2019-05-18T20:02:10.144Z,78.53
2019-05-18T20:05:16.786Z,76.66
2019-05-18T20:08:23.235Z,75.77
2019-05-18T20:11:29.730Z,75.31
2019-05-18T20:14:36.239Z,77.77
2019-05-18T20:17:44.877Z,78.37
2019-05-18T20:20:51.467Z,77.85
2019-05-18T20:24:00.450Z,77.21
2019-05-18T20:27:06.955Z,76.73
2019-05-18T20:30:13.634Z,74.78
2019-05-18T20:33:20.034Z,76.30
2019-05-18T20:36:26.437Z,76.02
2019-05-18T20:39:32.899Z,75.96
2019-05-18T20:42:39.629Z,78.13
2019-05-18T20:45:48.557Z,78.00
2019-05-18T20:48:55.312Z,79.95
2019-05-18T20:52:01.762Z,79.63
2019-05-18T20:55:08.395Z,81.65
2019-05-18T20:58:14.882Z,81.83
2019-05-18T21:01:21.518Z,79.08
2019-05-18T21:04:28.069Z,77.65
2019-05-18T21:07:34.764Z,77.75
2019-05-18T21:10:41.220Z,77.75
2019-05-18T21:13:47.658Z,79.88
2019-05-18T21:16:55.326Z,79.15
2019-05-18T21:20:01.951Z,79.44
2019-05-18T21:23:11.753Z,81.83
2019-05-18T21:26:17.888Z,80.31
2019-05-18T21:29:24.353Z,83.04
2019-05-18T21:32:32.130Z,82.27
2019-05-18T21:35:38.533Z,82.45
2019-05-18T21:38:46.033Z,81.36
2019-05-18T21:41:52.574Z,82.92
2019-05-18T21:44:59.212Z,81.27
2019-05-18T21:48:05.833Z,79.20
2019-05-18T21:51:12.337Z,81.86
2019-05-18T21:54:18.823Z,81.98
2019-05-18T21:57:28.046Z,84.01
2019-05-18T22:00:34.668Z,80.79
2019-05-18T22:03:47.877Z,82.67
2019-05-18T22:06:52.172Z,83.07
2019-05-18T22:09:58.789Z,81.45
2019-05-18T22:13:05.170Z,80.84
2019-05-18T22:16:11.649Z,81.17
2019-05-18T22:19:20.276Z,83.75
2019-05-18T22:22:29.067Z,82.01
2019-05-18T22:25:36.005Z,81.64
2019-05-18T22:28:42.962Z,79.78
2019-05-18T22:31:49.476Z,83.34
2019-05-18T22:34:55.967Z,83.97
2019-05-18T22:38:02.564Z,83.13
2019-05-18T22:41:09.124Z,80.49
2019-05-18T22:44:15.820Z,84.50
2019-05-18T22:47:22.402Z,85.20
2019-05-18T22:50:28.954Z,83.53
2019-05-18T22:53:35.618Z,82.94
2019-05-18T22:56:42.080Z,83.68
2019-05-18T22:59:50.782Z,84.59
2019-05-18T23:02:57.274Z,85.64
2019-05-18T23:06:03.940Z,84.22
2019-05-18T23:09:10.602Z,85.36
2019-05-18T23:12:17.187Z,82.99
2019-05-18T23:15:23.680Z,81.69
2019-05-18T23:18:30.175Z,84.71
2019-05-18T23:21:38.309Z,87.14
2019-05-18T23:24:48.112Z,88.89
2019-05-18T23:27:54.603Z,88.35
2019-05-18T23:31:02.415Z,88.02
2019-05-18T23:34:11.016Z,86.94
2019-05-18T23:37:17.565Z,89.20
2019-05-18T23:40:24.144Z,85.25
2019-05-18T23:43:30.661Z,85.66
2019-05-18T23:46:37.699Z,84.53
2019-05-18T23:49:44.683Z,86.90
2019-05-18T23:52:51.215Z,84.60
2019-05-18T23:55:57.674Z,86.72
2019-05-18T23:59:04.390Z,86.74
